Relay Info: Click Here

      Squamish Triathlon 7th Annual
             Results by RACE HEADQUARTERS - darcy@raceheadquarters.com

                                                          Sunday July 11, 2004

      FINAL OVERALL Results

 FINAL Place     Place/TOTAL    FINAL  BIB  NAME of               SWIM 1.5Km BIKE 40 Km  Mi. End of BIKE  RUN  10 Km  PACE
 PLACE in SEX    in DIVISION    TIME   NO. COMPETITOR             Rank Split Rank Split /Hr. Place  TIME  Rank Split /Mile CITY

    1   1/190 M  1/16 M2529  1:56:32  213 Paul Krochak              5 20:23    1   58:38 25.4    1 1:19:01    4 37:32  6:03 Vancouver,BC
    2   2/190 M  2/16 M2529  1:57:29   12 Scott Curry               6 20:29    3   59:56 24.9    2 1:20:25    3 37:05  5:58 Vancouver,BC
    3   1/41  R  1/8  R-Male 1:58:30  440  Martindale/Bullington    3 19:24    6 1:01:31 24.2    4 1:20:55    5 37:35  6:03 ,
    4   3/190 M  1/14 M2024  1:59:10  286 Travis Chater             1 19:09   11 1:03:14 23.6    6 1:22:23    1 36:48  5:56 Victoria,BC
    5   4/190 M  2/14 M2024  2:00:27  372 Tim Dewailly              2 19:10    4 1:01:19 24.3    3 1:20:29   21 39:59  6:27 Victoria,BC
    6   5/190 M  1/37 M3539  2:02:38  336 Gord Addison             15 22:21   12 1:03:20 23.6   10 1:25:40    2 36:59  5:57 Squamish,BC
    7   2/41  R  1/18 R-Mix  2:05:58  441  Last Minute             19 22:52    2   58:54 25.3    5 1:21:46   52 44:12  7:07 ,BC
    8   6/190 M  3/14 M2024  2:06:00  332 Jonathan Benskin          8 20:55   10 1:03:12 23.6    8 1:24:06   31 41:54  6:45 Victoria,BC
    9   7/190 M  1/30 M4044  2:06:37  361 Patrick Turner           31 23:32   21 1:04:40 23.1   19 1:28:12    7 38:26  6:12 Vancouver,BC
   10   1/166 F  1/40 F3034  2:06:53  352 Christine Fletcher       32 23:35   15 1:04:00 23.3   16 1:27:34   11 39:19  6:20 Vancouver,BC
   11   2/166 F  1/32 F2529  2:07:20   73 Penny Lidstone           26 23:24   16 1:04:01 23.3   15 1:27:24   19 39:57  6:26 Vancouver,BC
   12   8/190 M  2/30 M4044  2:07:28   98 Charles Bingham          21 22:56   24 1:04:47 23.0   17 1:27:42   17 39:46  6:24 North Vancouver,
   13   3/166 F  2/40 F3034  2:07:48   22 Tiffany Evans             9 21:06   35 1:06:04 22.6   12 1:27:09   26 40:39  6:33 Victoria,BC
   14   9/190 M  1/37 M3034  2:08:07   13 Jonathan Silcock         55 25:05    9 1:03:08 23.6   20 1:28:12   18 39:56  6:26 North Vancouver,
   15  10/190 M  2/37 M3034  2:08:21   43 David Higgins            12 21:33   47 1:07:23 22.1   23 1:28:56   12 39:25  6:21 Whistler,BC
   16  11/190 M  3/30 M4044  2:09:55  102 Alex Seal                85 26:17   13 1:03:42 23.4   25 1:29:58   20 39:57  6:26 Salmon Arm,BC
   17   4/166 F  2/32 F2529  2:10:36  258 Dawn Berg                40 24:09   33 1:05:59 22.6   27 1:30:07   24 40:30  6:31 Victoria,BC
   18   3/41  R  2/18 R-Mix  2:10:52  442  SFU Fastkids            14 22:13    7 1:01:41 24.2    7 1:23:53  102 46:59  7:34 Vancouver,BC
   19   5/166 F  1/14 F2024  2:10:55  297 Regan Petelski            4 20:00   48 1:07:24 22.1   14 1:27:23   47 43:32  7:01 Victoria,BC
   20  12/190 M  3/16 M2529  2:11:04   90 Matt McDowell            46 24:32   19 1:04:19 23.2   22 1:28:51   34 42:13  6:48 Powell River,BC
   21  13/190 M  4/16 M2529  2:11:05  143 Jason Abrams             18 22:52   28 1:05:25 22.8   21 1:28:17   43 42:48  6:54 Vancouver,BC
   22  14/190 M  2/37 M3539  2:11:11  168 Marc Perrot             135 27:59   20 1:04:35 23.1   40 1:32:33    9 38:38  6:14 Richmond,BC
   23  15/190 M  4/14 M2024  2:12:00  300 Nathan Wallace           68 25:44   43 1:06:47 22.3   39 1:32:30   14 39:30  6:22 Vancouver,BC
   24   6/166 F  1/34 F3539  2:12:09  375 Yvonne Timewell          34 23:42   36 1:06:04 22.6   24 1:29:46   36 42:23  6:50 Port Moody,BC
   25  16/190 M  1/4  M1519  2:12:14  274 Stephen Kilshaw          95 26:47   39 1:06:37 22.4   47 1:33:23   10 38:52  6:16 Victoria,BC
   26   7/166 F  2/14 F2024  2:12:21  376 Thalia Castillo          10 21:16   32 1:05:47 22.7   11 1:27:02   70 45:19  7:18 Victoria,BC
   27  17/190 M  1/26 M4549  2:12:49   50 Art Boileau             159 28:34   31 1:05:40 22.7   62 1:34:14    8 38:36  6:13 Vancouver,BC
   28  18/190 M  3/37 M3034  2:13:24    6 Tim Cole                 16 22:34   25 1:04:47 23.0   13 1:27:21   84 46:04  7:25 Kamloops,BC
   29  19/190 M  2/26 M4549  2:13:40  246 Mark Shorter             64 25:34   49 1:07:30 22.1   44 1:33:03   25 40:37  6:33 North Vancouver,
   30  20/190 M  5/16 M2529  2:14:12  277 Ruedi Schnyder          146 28:18   22 1:04:42 23.1   43 1:33:00   28 41:13  6:38 Roberts Creek,BC
   31  21/190 M  3/37 M3539  2:14:15  167 Mike McArthur            63 25:24   41 1:06:40 22.4   38 1:32:04   32 42:12  6:48 Vancouver,BC
   32  22/190 M  4/30 M4044  2:14:33  342 Rick Tkach               72 25:48   23 1:04:44 23.0   31 1:30:31   51 44:02  7:06 Burnaby,BC
   33  23/190 M  4/37 M3034  2:14:40  183 Graham Schultz          121 27:30   69 1:09:03 21.6   83 1:36:32    6 38:09  6:09 Garibaldi Highla,
   34  24/190 M  5/14 M2024  2:14:52  346 Jordan Back             114 27:20   56 1:08:04 21.9   77 1:35:24   13 39:29  6:22 North Vancouver,
   35  25/190 M  4/37 M3539  2:15:22  303 Derek Peregrym           29 23:27   53 1:07:58 21.9   35 1:31:25   50 43:58  7:05 Langley,BC
   36  26/190 M  3/26 M4549  2:15:24  221 Bruce Dudas              37 23:56   68 1:09:00 21.6   41 1:32:56   38 42:29  6:51 Prince Rupert,BC
   37  27/190 M  5/30 M4044  2:15:43  129 Jeff Stasiuk             48 24:34   34 1:06:00 22.6   33 1:30:34   66 45:10  7:17 Surrey,BC
   38  28/190 M  5/37 M3539  2:16:01   74 Pierre Berube            17 22:42  117 1:11:07 21.0   54 1:33:49   33 42:13  6:48 Richmond,BC
   39  29/190 M  6/30 M4044  2:16:01  343 David Robertson          90 26:27   18 1:04:06 23.3   32 1:30:33   74 45:29  7:20 Burnaby,BC
   40  30/190 M  5/37 M3034  2:16:16  119 Jaime Ramirez           195 30:01   40 1:06:38 22.4   87 1:36:39   15 39:38  6:23 White Rock,BC
   41  31/190 M  6/37 M3034  2:16:20  219 Ron Rillorta            128 27:49   29 1:05:28 22.8   46 1:33:17   45 43:04  6:56 Coquitlam,BC
   42  32/190 M  6/16 M2529  2:16:55  120 Lauren Kildaw            47 24:34   30 1:05:39 22.7   28 1:30:12   96 46:44  7:32 Victoria,BC
   43  33/190 M  6/37 M3539  2:17:07  164 Cameron Lebans          198 30:06   38 1:06:33 22.4   86 1:36:38   23 40:30  6:31 Vancouver,BC
   44   4/41  R  3/18 R-Mix  2:17:56  422  Beached Bonked & Blis   22 22:58    5 1:01:27 24.3    9 1:24:24  229 53:32  8:37 ,
   45  34/190 M  6/14 M2024  2:18:06  194 Adam Wainwright          59 25:07   63 1:08:34 21.7   51 1:33:41   58 44:26  7:09 Richmond,BC
   46   8/166 F  3/40 F3034  2:18:26  211 Marie-Anne Prevost       97 26:49   45 1:07:14 22.2   58 1:34:03   57 44:23  7:09 Whistler,BC
   47   9/166 F  2/34 F3539  2:18:32  109 Elizabeth Hatch          78 26:04   44 1:06:53 22.3   42 1:32:57   75 45:36  7:21 Maple Ridge,BC
   48  35/190 M  7/37 M3034  2:18:39  330 Craig Hill              117 27:22   42 1:06:45 22.3   60 1:34:06   60 44:33  7:11 Whistler,BC
   49  36/190 M  7/30 M4044  2:18:40  337 Ken Scott               101 26:54   72 1:09:09 21.6   78 1:36:03   41 42:38  6:52 Coquitlam,BC
   50  37/190 M  8/30 M4044  2:18:47  224 Paul Suter               35 23:49   17 1:04:03 23.3   18 1:27:52  174 50:56  8:12 Penticton,BC
   51  10/166 F  3/14 F2024  2:18:47   21 Paige Gardiner           71 25:48   61 1:08:18 21.8   59 1:34:05   64 44:43  7:12 Victoria,BC
   52   5/41  R  2/8  R-Male 2:18:57  425  Flip Flop and Fly       23 23:03   46 1:07:22 22.1   29 1:30:24  125 48:34  7:49 West Vancouver,B
   53   6/41  R  1/15 R-Fem  2:19:03  427  2 Physios and a Slave  109 27:16   77 1:09:16 21.5   84 1:36:32   39 42:32  6:51 ,
   54  11/166 F  3/32 F2529  2:19:17  146 Heather MacDonald        60 25:13  167 1:14:25 20.0  116 1:39:38   16 39:39  6:23 Vancouver,BC
   55  38/190 M  9/30 M4044  2:19:28  159 Neil Gremell             56 25:05   27 1:05:22 22.8   30 1:30:27  133 49:02  7:54 Vancouver,BC
   56  39/190 M  7/14 M2024  2:19:42  323 Cameron Cunningham      204 30:14   57 1:08:04 21.9  105 1:38:18   29 41:25  6:40 Salt Spring Isla,
   57  40/190 M  1/12 M5559  2:19:48  295 Ian Hooley               27 23:25   51 1:07:50 22.0   34 1:31:14  124 48:34  7:49 Vancouver,BC
   58  41/190 M  2/12 M5559  2:20:01   87 Greg Sandkuhl            45 24:22  104 1:10:27 21.2   69 1:34:48   68 45:13  7:17 Whistler,BC
   59  42/190 M  8/37 M3034  2:20:13  220 Rob MacLeod              30 23:31   96 1:10:06 21.3   49 1:33:37   92 46:37  7:30 Garibaldi Highla,
   60  43/190 M  9/37 M3034  2:20:22  160 Ben Eksteen             202 30:12   97 1:10:07 21.3  126 1:40:19   22 40:03  6:27 Garibaldi Highla,
   61   7/41  R  4/18 R-Mix  2:20:23  407  Shake Rattle & Roll    129 27:49    8 1:02:10 24.0   26 1:29:59  161 50:25  8:07 Garibaldi Highla,
   62  44/190 M  7/37 M3539  2:20:35   82 Sandy Treagus            79 26:06   60 1:08:16 21.9   63 1:34:21   89 46:14  7:27 Whistler,BC
   63  45/190 M  8/37 M3539  2:20:38  326 Matt Hill               106 27:10   86 1:09:46 21.4   88 1:36:55   49 43:44  7:03 Vancouver,BC
   64  46/190 M  2/4  M1519  2:20:51  353 Max Roy                  92 26:31  120 1:11:11 21.0   99 1:37:42   46 43:10  6:57 Garibaldi Highla,
   65  47/190 M 10/30 M4044  2:21:01  354 Neil McKinnon           173 28:50  122 1:11:16 20.9  121 1:40:06   27 40:55  6:36 ,
   66  48/190 M  9/37 M3539  2:21:03  364 Luis Alonso              43 24:18  163 1:14:02 20.1  106 1:38:19   42 42:44  6:53 Vancouver,BC
   67  12/166 F  4/32 F2529  2:21:13  242 Kelley Toy               42 24:14  113 1:10:56 21.0   74 1:35:10   82 46:03  7:25 Vancouver,BC
   68  49/190 M 10/37 M3034  2:21:20  287 Trampas Swanson          41 24:12  101 1:10:20 21.2   66 1:34:32   98 46:49  7:32 North Vancouver,
   69  13/166 F  3/34 F3539  2:21:22  223 Janine Benson            74 25:48   84 1:09:31 21.5   76 1:35:19   83 46:03  7:25 Coquitlam,BC
   70  14/166 F  4/14 F2024  2:21:40  263 Sarah Manske             57 25:05   66 1:08:47 21.7   56 1:33:52  109 47:48  7:42 Vancouver,BC
   71   8/41  R  3/8  R-Male 2:21:45  432  G & T Pool & Spa       103 27:06   70 1:09:03 21.6   80 1:36:08   76 45:37  7:21 Squamish,
   72  15/166 F  4/34 F3539  2:21:57  152 Marcia Wilson            61 25:21   89 1:09:51 21.4   75 1:35:11   97 46:46  7:32 Kamloops,BC
   73  50/190 M 11/30 M4044  2:21:58  212 Bob Deeks               156 28:31   50 1:07:37 22.1   79 1:36:07   79 45:51  7:23 Whistler,BC
   74  51/190 M 10/37 M3539  2:22:05  329 John Coelho             185 29:35   14 1:03:54 23.3   48 1:33:29  126 48:37  7:50 Kamloops,BC
   75  52/190 M 11/37 M3539  2:22:17   14 W.Paul Wright           112 27:18   87 1:09:46 21.4   89 1:37:04   67 45:13  7:17 Sechelt,BC
   76  53/190 M 11/37 M3034  2:22:17   61 Paul Martinson           54 25:03   73 1:09:09 21.6   61 1:34:12  114 48:06  7:45 Vancouver,BC
   77  16/166 F  5/32 F2529  2:22:21  284 Christine Baron-Martin   11 21:28  147 1:12:57 20.4   64 1:34:24  112 47:57  7:44 Vancouver,BC
   78  54/190 M  3/12 M5559  2:22:32  334 Ray Wilburn             174 28:50   82 1:09:24 21.5  103 1:38:14   55 44:19  7:08 Squamish,BC
   79  55/190 M 12/37 M3034  2:22:34  311 Martin Harley            91 26:31   55 1:08:02 21.9   67 1:34:33  113 48:02  7:44 Vancouver,BC
   80  56/190 M 12/37 M3539  2:22:37  230 Roman Dujmovic          201 30:10  107 1:10:34 21.1  134 1:40:44   30 41:54  6:45 Burnaby,BC
   81  57/190 M 13/37 M3034  2:22:48    9 Graham Tutti             82 26:09   52 1:07:54 22.0   57 1:34:02  127 48:46  7:51 North Vancouver,
   82  58/190 M  3/4  M1519  2:22:48  124 Marc-Jason Locquiao     218 30:48   71 1:09:08 21.6  119 1:39:55   44 42:54  6:55 Delta,BC
   83  59/190 M  1/9  M5054  2:23:00  261 Paul Moraze              69 25:44   54 1:08:02 21.9   52 1:33:46  136 49:14  7:56 Port Moody,BC
   84  17/166 F  6/32 F2529  2:23:00  335 Teresa Hoivik           102 26:55  133 1:11:55 20.7  109 1:38:49   53 44:12  7:07 Squamish,BC
   85  60/190 M 14/37 M3034  2:23:06  239 David Hyatt              24 23:09  106 1:10:31 21.2   50 1:33:40  142 49:27  7:58 White Rock,BC
   86  61/190 M  8/14 M2024  2:23:12  157 Kyle Wheatley           172 28:49   65 1:08:38 21.7   95 1:37:27   78 45:46  7:22 North Vancouver,
   87  62/190 M 12/30 M4044  2:23:12   63 Neil Corbett             98 26:51   99 1:10:15 21.2   90 1:37:05   87 46:07  7:26 Delta,BC
   88  63/190 M 15/37 M3034  2:23:23  148 Derrick Nelson          111 27:18   95 1:10:04 21.3   93 1:37:21   81 46:03  7:25 North Vancouver,
   89  18/166 F  5/14 F2024  2:24:02  299 Robin Hopkins            50 24:40  219 1:16:57 19.4  148 1:41:36   37 42:26  6:50 Summerland,BC
   90  64/190 M  9/14 M2024  2:24:20  317 Brock Rawstron          190 29:45   93 1:10:01 21.3  117 1:39:46   62 44:35  7:11 Coquitlam,BC
   91  65/190 M 13/37 M3539  2:24:30   69 Alan Roberts            231 31:23   62 1:08:31 21.8  118 1:39:53   63 44:37  7:11 Maple Ridge,BC
   92  66/190 M  7/16 M2529  2:24:35  319 Alex Low                152 28:26  110 1:10:44 21.1  110 1:39:09   73 45:27  7:19 North Vancouver,
   93  67/190 M 10/14 M2024  2:24:36  189 Doug Giles              169 28:46  155 1:13:16 20.4  152 1:42:01   40 42:36  6:52 North Vancouver,
   94  19/166 F  5/34 F3539  2:24:38  141 Stephanie Kieffer        25 23:16  149 1:12:58 20.4   82 1:36:13  123 48:25  7:48 Vancouver,BC
   95  68/190 M 14/37 M3539  2:24:46  333 Ken Addison              33 23:37   58 1:08:08 21.9   37 1:31:44  218 53:02  8:33 Coquitlam,BC
   96  69/190 M 16/37 M3034  2:25:13  125 Chris Player            162 28:38  129 1:11:29 20.9  122 1:40:07   65 45:07  7:16 Vancouver,BC
   97  70/190 M 17/37 M3034  2:25:50  316 Jason Adamscek          158 28:33  151 1:13:00 20.4  146 1:41:32   54 44:18  7:08 Vancouver,BC
   98  20/166 F  4/40 F3034  2:26:06  199 Dallas Parsons           51 24:41  103 1:10:22 21.2   71 1:35:03  177 51:03  8:13 North Vancouver,
   99  21/166 F  6/14 F2024  2:26:12  140 Kristina Ingeberg        13 22:01  152 1:13:06 20.4   72 1:35:06  181 51:06  8:14 Victoria,BC
  100  22/166 F  7/14 F2024  2:26:12  298 Amy Mills                73 25:48   80 1:09:19 21.5   73 1:35:07  180 51:06  8:14 Victoria,BC
  101  71/190 M  8/16 M2529  2:26:18  366 Andrew Pitre            230 31:17   74 1:09:11 21.6  128 1:40:27   80 45:51  7:23 Vancouver,BC
  102  72/190 M 13/30 M4044  2:26:47  259 Mike Truelove            84 26:17  119 1:11:09 21.0   94 1:37:25  140 49:22  7:57 Squamish,BC
  103  73/190 M  2/9  M5054  2:27:20  253 David Taylor            154 28:28  184 1:15:10 19.8  167 1:43:38   48 43:42  7:02 Vancouver,BC
  104  74/190 M 15/37 M3539  2:27:32   94 Dan Bodden              196 30:04   85 1:09:33 21.4  115 1:39:37  111 47:55  7:43 Victoria,BC
  105  75/190 M  4/26 M4549  2:27:32   19 Mark Cook               130 27:50  141 1:12:40 20.5  129 1:40:29  103 47:04  7:35 Vancouver,BC
  106  23/166 F  7/32 F2529  2:27:38  320 Melahnie Moodie          99 26:51  118 1:11:08 21.0  101 1:37:59  148 49:39  8:00 Brackendale,BC
  107  76/190 M 18/37 M3034  2:27:54  185 Shane Robilliard        179 29:15   67 1:08:59 21.6  102 1:38:13  149 49:41  8:00 Squamish,BC
  108  77/190 M  9/16 M2529  2:28:00  270 Robert Bobsien           75 25:54   64 1:08:36 21.7   65 1:34:30  228 53:31  8:37 Vancouver,BC
  109  78/190 M  3/9  M5054  2:28:15  197 Randy Trerise           242 31:35  100 1:10:18 21.2  151 1:41:52   90 46:24  7:28 Grand Forks,BC
  110   1/1   Q  1/1  DQ     2:28:15   37 Patrick Dickie          181 29:20   59 1:08:12 21.9   96 1:37:31  167 50:45  8:10 Halfmoon Bay,BC
  111   9/41  R  2/15 R-Fem  2:28:31  416  Tri-abolic              86 26:22  111 1:10:47 21.1   92 1:37:08  183 51:23  8:17 Burnaby,BC
  112  79/190 M 19/37 M3034  2:28:58  371 Duncan Pearce           189 29:43  123 1:11:21 20.9  141 1:41:03  110 47:55  7:43 West Vancouver,B
  113  80/190 M  4/12 M5559  2:29:00   78 Werner Schulz           233 31:26  130 1:11:29 20.9  157 1:42:55   85 46:05  7:25 Richmond,BC
  114  81/190 M  4/9  M5054  2:29:04   27 Ron Manley              187 29:37  157 1:13:19 20.3  158 1:42:56   88 46:09  7:26 Vancouver,BC
  115  24/166 F  5/40 F3034  2:29:06  163 Marla Zucht             220 30:52   92 1:10:01 21.3  138 1:40:52  116 48:15  7:46 Whistler,BC
  116  25/166 F  8/32 F2529  2:29:15  187 Charlene Parrott         36 23:51  174 1:14:36 20.0  107 1:38:26  169 50:49  8:11 Coquitlam,BC
  117  26/166 F  6/34 F3539  2:29:16  257 Natalie Komar            65 25:40  105 1:10:29 21.2   81 1:36:09  222 53:07  8:33 Seattle,WA
  118  27/166 F  6/40 F3034  2:29:20   72 Sherrie Myers           113 27:18  142 1:12:41 20.5  120 1:39:59  139 49:22  7:57 Richmond,BC
  119  82/190 M 14/30 M4044  2:29:22  268 Mike Charuk              88 26:25  109 1:10:42 21.1   91 1:37:06  200 52:16  8:25 Whistler,BC
  120  83/190 M  1/5  M6064  2:29:24  214 Brian Parkinson         142 28:11  145 1:12:49 20.5  139 1:41:00  122 48:24  7:48 Langley,BC
  121  84/190 M 11/14 M2024  2:29:39  142 Steven Devantier         58 25:06   37 1:06:26 22.5   36 1:31:32  289 58:08  9:22 Port Coquitlam,B
  122  85/190 M  5/26 M4549  2:29:51  240 Tracie McTavish         239 31:33  126 1:11:25 20.9  159 1:42:57  101 46:55  7:33 West Vancouver,B
  123  28/166 F  9/32 F2529  2:30:03   97 Irena Netik             257 31:55  146 1:12:53 20.5  181 1:44:47   69 45:17  7:18 Victoria,BC
  124  86/190 M  5/9  M5054  2:30:09  158 Gord Robertson           38 23:58   90 1:09:54 21.3   55 1:33:51  266 56:18  9:04 Surrey,BC
  125  87/190 M 12/14 M2024  2:30:09   26 Ivan Chong              104 27:10  198 1:15:56 19.6  161 1:43:05  104 47:04  7:35 West Vancouver,B
  126  88/190 M 20/37 M3034  2:30:11  203 Jason Bishop            133 27:57  136 1:12:21 20.6  125 1:40:18  152 49:53  8:02 New Westminster,
  127  89/190 M  5/12 M5559  2:30:44  130 Paul Truelove           168 28:44  140 1:12:36 20.5  143 1:41:20  141 49:24  7:57 Bowen Island,BC
  128  29/166 F 10/32 F2529  2:30:54   66 Sara Hills              183 29:30  134 1:11:55 20.7  144 1:41:25  144 49:30  7:58 Vancouver,BC
  129  90/190 M 16/37 M3539  2:31:05  171 Eric van Roon           203 30:12  169 1:14:28 20.0  179 1:44:40   91 46:26  7:29 Vancouver,BC
  130  10/41  R  3/15 R-Fem  2:31:26  429  Magic Happens           28 23:25  154 1:13:10 20.4   85 1:36:35  251 54:51  8:50 ,
  131  91/190 M 21/37 M3034  2:31:33  195 John Sullivan            62 25:23   78 1:09:16 21.5   68 1:34:38  277 56:55  9:10 Vancouver,BC
  132  92/190 M 22/37 M3034  2:31:33  278 Robert Airey            206 30:20  102 1:10:20 21.2  133 1:40:40  172 50:53  8:12 Vancouver,BC
  133  93/190 M  6/26 M4549  2:31:40  310 Mark Rutledge            80 26:07  165 1:14:11 20.1  124 1:40:18  184 51:23  8:17 Vancouver,BC
  134  30/166 F 11/32 F2529  2:31:41  282 Tiff Fenton              53 24:53  171 1:14:30 20.0  112 1:39:23  203 52:19  8:26 Squamish,BC
  135  94/190 M 15/30 M4044  2:31:45   64 Paul Jennings           155 28:29  179 1:14:55 19.9  164 1:43:23  120 48:22  7:47 Surrey,BC
  136  95/190 M  7/26 M4549  2:31:47  250 John Blakeley           164 28:41   75 1:09:12 21.6  100 1:37:52  237 53:55  8:41 North Vancouver,
  137  96/190 M 17/37 M3539  2:31:50  264 Simon Chow              171 28:47  125 1:11:24 20.9  123 1:40:11  192 51:40  8:19 Vancouver,BC
  138  97/190 M  8/26 M4549  2:31:52  358 Joe Hill                144 28:14  144 1:12:48 20.5  140 1:41:02  170 50:50  8:11 Langley,BC
  139  98/190 M 10/16 M2529  2:32:04  216 Brett McLean            211 30:32   91 1:09:58 21.3  130 1:40:30  188 51:35  8:18 Vancouver,BC
  140  99/190 M 23/37 M3034  2:32:08  139 Christopher Westcott     83 26:15  227 1:17:31 19.2  168 1:43:45  121 48:24  7:48 Vancouver,BC
  141  11/41  R  5/18 R-Mix  2:32:10  419  HSBC/BLG               143 28:11   26 1:05:02 22.9   45 1:33:13  298 58:58  9:30 Vancouver,BC
  142 100/190 M 18/37 M3539  2:32:14  229 Greg Chambers           151 28:24  156 1:13:17 20.4  149 1:41:41  163 50:33  8:09 Vancouver,BC
  143  31/166 F 12/32 F2529  2:32:20  255 Jennifer Rice            70 25:47   79 1:09:17 21.5   70 1:35:03  284 57:18  9:14 Surrey,BC
  144  12/41  R  4/8  R-Male 2:32:27  421  CMS                    248 31:43  235 1:18:27 19.0  244 1:50:10   35 42:18  6:49 ,
  145  32/166 F 13/32 F2529  2:32:28  138 Martina Meckova           7 20:54  257 1:19:46 18.7  132 1:40:40  194 51:49  8:21 Vancouver,BC
  146  33/166 F  7/34 F3539  2:32:30   46 Audrey Erlandson        140 28:06  124 1:11:23 20.9  114 1:39:28  217 53:02  8:32 Kamloops,BC
  147 101/190 M 11/16 M2529  2:32:32  145 Joel Waithman           337 36:19   81 1:09:20 21.5  193 1:45:38  100 46:54  7:33 Vancouver,BC
  148  34/166 F  8/14 F2024  2:32:37  121 Jody Wright             116 27:20  150 1:12:59 20.4  127 1:40:19  202 52:19  8:26 Squamish,BC
  149  13/41  R  4/15 R-Fem  2:32:57  413  Mamma                  138 28:02   83 1:09:30 21.5   97 1:37:32  261 55:26  8:56 Squamish,BC
  150 102/190 M 24/37 M3034  2:32:59   84 Chris Hodkinson         147 28:19  139 1:12:27 20.6  135 1:40:46  199 52:14  8:25 Whistler,BC
  151 103/190 M  9/26 M4549  2:33:05   88 Dan Stewart             255 31:53  138 1:12:25 20.6  175 1:44:17  128 48:48  7:52 North Vancouver,
  152  35/166 F  1/22 F4044  2:33:14   25 Jodi Boates             136 27:59  175 1:14:39 20.0  154 1:42:38  165 50:37  8:09 North Vancouver,
  153  36/166 F  8/34 F3539  2:33:15    8 Dawn Kardos             217 30:46  159 1:13:27 20.3  174 1:44:12  135 49:03  7:54 Courtenay,BC
  154  14/41  R  6/18 R-Mix  2:33:36  402  Team Apnea             141 28:08  197 1:15:53 19.7  172 1:44:00  147 49:36  7:59 Vancouver,BC
  155 104/190 M 12/16 M2529  2:33:42   28 John Teitzel            126 27:46  251 1:19:19 18.8  208 1:47:04   94 46:38  7:31 Pemberton,BC
  156 105/190 M 25/37 M3034  2:33:42  181 Brian Cropp              96 26:47  128 1:11:28 20.9  104 1:38:15  262 55:28  8:56 Surrey,BC
  157 106/190 M 19/37 M3539  2:33:58  341 Peter Sonnichsen        262 32:20  181 1:15:02 19.9  212 1:47:21   93 46:37  7:31 Vancouver,BC
  158 107/190 M 20/37 M3539  2:33:58  235 James Craig             259 32:08  148 1:12:57 20.4  186 1:45:04  131 48:54  7:53 South Surrey,BC
  159 108/190 M 16/30 M4044  2:34:15  128 Eric Petit              166 28:42  176 1:14:43 20.0  165 1:43:25  171 50:51  8:11 Surrey,BC
  160  15/41  R  5/15 R-Fem  2:34:17  423  The Eagle Run Barista  222 31:00  231 1:17:38 19.2  228 1:48:37   77 45:41  7:22 ,
  161  37/166 F  2/22 F4044  2:34:29  161 Cheryl Steele           165 28:42  193 1:15:40 19.7  176 1:44:22  158 50:08  8:04 Vancouver,BC
  162  38/166 F  1/2  F1519  2:34:31  279 Claire Daniels          258 32:03  204 1:16:24 19.5  225 1:48:26   86 46:06  7:26 Whistler,BC
  163 109/190 M 26/37 M3034  2:34:39   11 Trevor Olson             20 22:54  112 1:10:55 21.0   53 1:33:48  315 60:51  9:48 Vancouver,BC
  164 110/190 M 21/37 M3539  2:34:42  133 Gavin Marshall          252 31:49  199 1:16:02 19.6  216 1:47:50   99 46:52  7:33 North Vancouver,
  165 111/190 M 22/37 M3539  2:34:45   75 David Hubner            339 36:26                                                 Garibaldi Highla,
  166  39/166 F 14/32 F2529  2:34:51  324 Krista Powell            67 25:41  183 1:15:10 19.8  137 1:40:50  240 54:01  8:42 Victoria,BC
  167 112/190 M 17/30 M4044  2:34:57  348 Ron Gordon              331 35:50   88 1:09:50 21.4  194 1:45:39  138 49:18  7:57 Port Moody,BC
  168  40/166 F 15/32 F2529  2:35:11  178 Tiffany Lombaert        186 29:35  187 1:15:16 19.8  182 1:44:51  159 50:21  8:07 Salmon Arm,BC
  169 113/190 M 27/37 M3034  2:35:14   60 Jason Lopez              76 25:58  132 1:11:43 20.8   98 1:37:40  286 57:35  9:16 Vancouver,BC
  170  41/166 F  9/14 F2024  2:35:23  243 Julie Balderston        176 28:56  206 1:16:25 19.5  190 1:45:21  157 50:03  8:04 North Vancouver,
  171  42/166 F  3/22 F4044  2:35:28  228 Verena von Bremen       256 31:53  164 1:14:07 20.1  197 1:45:59  143 49:29  7:58 Kamloops,BC
  172 114/190 M 13/16 M2529  2:35:28  340 Greg Pitre              312 34:27  135 1:12:12 20.7  204 1:46:39  129 48:50  7:52 Victoria,BC
  173 115/190 M 28/37 M3034  2:35:31  132 David Kozicz            199 30:08  127 1:11:26 20.9  147 1:41:34  239 53:58  8:42 Vancouver,BC
  174  43/166 F  4/22 F4044  2:35:38  313 Sonja Saksida           178 29:04  137 1:12:24 20.6  145 1:41:28  242 54:11  8:44 Campbell River,B
  175 116/190 M 23/37 M3539  2:35:43   15 Devin Jain              223 31:01  266 1:20:08 18.6  251 1:51:09   61 44:35  7:11 Port Moody,BC
  176  16/41  R  7/18 R-Mix  2:35:49  415  BYU - perspectus.ca    376 42:09   76 1:09:15 21.5  255 1:51:23   59 44:26  7:10 Burnaby,BC
  177 117/190 M 18/30 M4044  2:35:49  328 Gord McAllister         264 32:25   94 1:10:03 21.3  153 1:42:28  225 53:22  8:36 Kamloops,BC
  178  44/166 F  7/40 F3034  2:35:52  360 Tanya Camposano         200 30:09  153 1:13:06 20.4  163 1:43:14  209 52:38  8:29 Roberts Creek,BC
  179  45/166 F  9/34 F3539  2:35:55  115 Rose Neat                44 24:21  207 1:16:25 19.5  136 1:40:46  256 55:09  8:53 Coquitlam,BC
  180  17/41  R  8/18 R-Mix  2:36:11  435  Team Angie             265 32:28  131 1:11:34 20.8  173 1:44:02  197 52:10  8:24 ,
  181  46/166 F 10/34 F3539  2:36:32  103 Tracy Moore             284 33:21  212 1:16:31 19.5  237 1:49:51   95 46:41  7:31 100 Mile House,B
  182  47/166 F 16/32 F2529  2:36:35  260 Kate Paquin              66 25:40  226 1:17:26 19.3  162 1:43:06  227 53:29  8:37 Vancouver,BC
  183  48/166 F 11/34 F3539  2:36:48  198 Lori Broker             125 27:43  143 1:12:48 20.5  131 1:40:31  267 56:18  9:04 Squamish,BC
  184 118/190 M 24/37 M3539  2:37:02  325 Dave Snider             245 31:38  192 1:15:37 19.7  210 1:47:15  151 49:47  8:01 White Rock,BC
  185 119/190 M 25/37 M3539  2:37:11  153 Sean Ennis              192 29:54  244 1:19:02 18.9  230 1:48:56  117 48:16  7:46 North Vancouver,
  186 120/190 M 19/30 M4044  2:37:17  215 Ian Tate                191 29:47  209 1:16:27 19.5  199 1:46:14  178 51:04  8:14 Langley,BC
  187 121/190 M 26/37 M3539  2:37:22  285 Greg McKay              210 30:31  248 1:19:10 18.8  236 1:49:41  108 47:41  7:41 Victoria,BC
  188 122/190 M 13/14 M2024  2:37:37  345 Travis Stevenson        271 32:51  210 1:16:29 19.5  233 1:49:20  118 48:17  7:47 Burnaby,BC
  189  18/41  R  6/15 R-Fem  2:37:39  430  The MaKelKis           110 27:18  224 1:17:24 19.3  180 1:44:41  216 52:58  8:32 ,
  190  49/166 F  1/12 F4549  2:37:57  117 Jaye Kerzner             87 26:23  264 1:20:01 18.6  201 1:46:24  187 51:33  8:18 Vancouver,BC
  191 123/190 M 14/14 M2024  2:38:05   81 Marc Wagner              81 26:07  278 1:21:01 18.4  209 1:47:08  175 50:57  8:12 Surrey,BC
  192  50/166 F 17/32 F2529  2:38:13  166 Janna Lunam             127 27:46  272 1:20:30 18.5  221 1:48:16  154 49:58  8:03 Vancouver,BC
  193  51/166 F 12/34 F3539  2:38:14   55 Michelle Gross          215 30:38  177 1:14:43 20.0  191 1:45:21  213 52:53  8:31 North Vancouver,
  194  52/166 F 13/34 F3539  2:38:14   96 Krista Sidhu            194 29:57  238 1:18:45 18.9  229 1:48:42  145 49:33  7:59 Victoria,BC
  195  19/41  R  9/18 R-Mix  2:38:22  436  ATNT                    94 26:38  172 1:14:32 20.0  142 1:41:10  281 57:12  9:13 Whistler,BC
  196 124/190 M  6/9  M5054  2:38:28  127 Dan Durnford            167 28:43  258 1:19:47 18.7  226 1:48:29  155 49:59  8:03 Surrey,BC
  197 125/190 M 10/26 M4549  2:38:39  339 Rob Woods               289 33:36  170 1:14:29 20.0  218 1:48:05  164 50:35  8:09 Kamloops,BC
  198 126/190 M 14/16 M2529  2:38:44  315 Jason Bicknell           77 26:00  246 1:19:06 18.9  187 1:45:05  230 53:39  8:38 Garibaldi Highla,
  199 127/190 M 29/37 M3034  2:38:53  154 Francois Fournier       234 31:29  195 1:15:50 19.7  211 1:47:19  189 51:35  8:19 Squamish,BC
  200  53/166 F  8/40 F3034  2:38:57  290 Natalee Peeters         197 30:04  178 1:14:51 19.9  184 1:44:55  241 54:03  8:42 Kamloops,BC
  201 128/190 M 20/30 M4044  2:38:59  293 Scott Thompson          221 30:56  166 1:14:20 20.1  188 1:45:16  234 53:44  8:39 North Vancouver,
  202 129/190 M 27/37 M3539  2:39:05  281 Todd Heintz             214 30:38  196 1:15:51 19.7  202 1:46:29  208 52:37  8:28 Vancouver,BC
  203  54/166 F  1/6  F5054  2:39:09  305 Helle Wilburn           292 33:38  115 1:10:58 21.0  178 1:44:35  250 54:35  8:47 Squamish,BC
  204  20/41  R 10/18 R-Mix  2:39:10  404 s Salty Don and The Ea  352 37:26  173 1:14:34 20.0  264 1:51:59  106 47:11  7:36 Garibaldi Highla,
  205 130/190 M 11/26 M4549  2:39:13  204 Chris Manore             52 24:47  232 1:17:59 19.1  156 1:42:46  271 56:27  9:06 Vancouver,BC
  206 131/190 M 12/26 M4549  2:39:14  356 Lee Chanin              137 27:59  108 1:10:39 21.1  108 1:38:38  310 60:36  9:46 Langley,BC
  207  55/166 F 18/32 F2529  2:39:32  156 Andrea Yeung            219 30:51  162 1:13:41 20.2  177 1:44:32  253 55:01  8:52 Vancouver,BC
  208 132/190 M 28/37 M3539  2:39:35  175 Scott Macintyre         216 30:44  185 1:15:11 19.8  196 1:45:54  231 53:41  8:39 Squamish,BC
  209  21/41  R 11/18 R-Mix  2:39:48  437  Blurr 2                360 38:40  216 1:16:51 19.4  290 1:55:30   56 44:19  7:08 Squamish,
  210  56/166 F 14/34 F3539  2:39:51  248 Joanne Turnbull         281 33:13  201 1:16:08 19.6  234 1:49:21  162 50:30  8:08 Garibaldi Highla,
  211 133/190 M 13/26 M4549  2:40:07  100 Brian Plumridge         163 28:40  182 1:15:08 19.9  169 1:43:48  269 56:20  9:04 New Westminster,
  212 134/190 M 21/30 M4044  2:40:12  312 Bill Taylor             318 34:54  202 1:16:16 19.6  252 1:51:10  134 49:02  7:54 North Vancouver,
  213  22/41  R  7/15 R-Fem  2:40:41  410  Blonde Ambition        184 29:32  194 1:15:47 19.7  189 1:45:18  260 55:24  8:55 Garibaldi Highla,
  214  57/166 F  9/40 F3034  2:40:49   44 Brandi Higgins          115 27:20  270 1:20:25 18.5  215 1:47:45  221 53:04  8:33 Whistler,BC
  215  58/166 F  5/22 F4044  2:40:53  280 Sandra Eves             182 29:20  276 1:20:40 18.5  239 1:49:59  173 50:54  8:12 Garibaldi Highla,
  216 135/190 M 14/26 M4549  2:40:54  355 Kim O'Leary             177 28:58   98 1:10:14 21.2  111 1:39:11  326 61:43  9:56 Vancouver,BC
  217  59/166 F  2/12 F4549  2:40:55  227 Lorraine Beese          207 30:20  233 1:18:05 19.1  223 1:48:25  207 52:31  8:27 West Vancouver,B
  218 136/190 M 22/30 M4044  2:40:58  144 Simon Crawley           118 27:22  188 1:15:19 19.8  155 1:42:41  291 58:18  9:23 150 Mile House,B
  219 137/190 M 15/26 M4549  2:41:01   16 Kevin Sweetman          193 29:57  160 1:13:34 20.3  166 1:43:30  285 57:31  9:16 Penticton,BC
  220 138/190 M 23/30 M4044  2:41:01    2 Peter Ross              148 28:19  189 1:15:30 19.8  170 1:43:48  282 57:13  9:13 Vancouver,BC
  221  60/166 F 10/40 F3034  2:41:07   76 Erin Tate               282 33:14  221 1:17:09 19.3  247 1:50:23  166 50:44  8:10 Port Coquitlam,B
  222 139/190 M  2/5  M6064  2:41:09  101 Don McIntosh            188 29:41  218 1:16:55 19.4  203 1:46:35  248 54:34  8:47 Port Coquitlam,B
  223  61/166 F 10/14 F2024  2:41:10  379 Leah Blok               285 33:26  213 1:16:39 19.5  242 1:50:05  179 51:06  8:14 Whistler,BC
  224  62/166 F  3/12 F4549  2:41:20  338 Aenea Cameron           359 38:34  223 1:17:23 19.3  291 1:55:57   72 45:24  7:19 Squamish,BC
  225 140/190 M  3/5  M6064  2:41:21   92 Peter Jensen            251 31:48  288 1:22:24 18.1  281 1:54:12  105 47:10  7:36 Tsawwassen,BC
  226 141/190 M 29/37 M3539  2:41:22  369 Anthony Maitland        170 28:46  294 1:22:43 18.0  256 1:51:29  153 49:54  8:02 North Vancouver,
  227  23/41  R  8/15 R-Fem  2:41:24  420  Endorphin Annies       263 32:20  229 1:17:34 19.2  238 1:49:54  186 51:31  8:18 ,
  228  24/41  R 12/18 R-Mix  2:41:44  428  Blurr 1                361 38:59  168 1:14:28 20.0  276 1:53:26  119 48:18  7:47 Squamish,
  229  63/166 F  6/22 F4044  2:41:47   59 Colleen Van Hooft       145 28:15  267 1:20:10 18.6  224 1:48:25  226 53:23  8:36 North Vancouver,
  230  64/166 F 11/14 F2024  2:41:59  110 Martina Wan             124 27:40  263 1:20:01 18.6  214 1:47:40  244 54:19  8:45 West Vancouver,B
  231  65/166 F 12/14 F2024  2:41:59  135 Becky Gibson            205 30:17  295 1:22:51 18.0  274 1:53:07  130 48:53  7:52 Vancouver,BC
  232  66/166 F 11/40 F3034  2:42:09  296 Bobbi-jo Evans          254 31:52  225 1:17:24 19.3  232 1:49:16  212 52:53  8:31 Vancouver,BC
  233  67/166 F 15/34 F3539  2:42:13   68 Amanda Roberts          243 31:37  203 1:16:19 19.5  217 1:47:55  243 54:19  8:45 Maple Ridge,BC
  234 142/190 M 24/30 M4044  2:42:19  273 Rick Ellery             317 34:48  228 1:17:31 19.2  266 1:52:19  156 50:01  8:03 Vancouver,BC
  235  25/41  R  9/15 R-Fem  2:42:27  417  2 Jafas a A Pom        134 27:58  299 1:23:00 18.0  249 1:50:57  185 51:31  8:18 Whistler,BC
  236 143/190 M 30/37 M3034  2:42:48  126 Kai-Uwe Schmidt         100 26:53  180 1:14:58 19.9  150 1:41:50  317 60:58  9:49 Vancouver,BC
  237 144/190 M 31/37 M3034  2:42:50  291 Geoffrey Loomer         277 33:07  277 1:20:50 18.5  278 1:53:57  132 48:54  7:53 Vancouver,BC
  238  68/166 F 16/34 F3539  2:42:50  107 Denise Roman            175 28:54  293 1:22:39 18.0  258 1:51:33  182 51:18  8:16 North Vancouver,
  239 145/190 M  4/4  M1519  2:42:58  149 Adam Quiring            357 38:28  249 1:19:11 18.8  307 1:57:39   71 45:20  7:18 Garibaldi Highla,
  240  69/166 F 12/40 F3034  2:43:04  365 Kirstin Lane            306 34:02  200 1:16:06 19.6  243 1:50:07  214 52:57  8:32 Vancouver,BC
  241  70/166 F  7/22 F4044  2:43:23  245 Susan Weston            238 31:31  214 1:16:42 19.4  220 1:48:12  257 55:11  8:53 ,BC
  242  71/166 F 19/32 F2529  2:43:42   65 Sarah Hiseman           307 34:02  241 1:18:53 18.9  272 1:52:55  168 50:47  8:11 Squamish,BC
  243  72/166 F 13/40 F3034  2:43:45  208 Rhonda Eden             208 30:21  211 1:16:30 19.5  206 1:46:50  278 56:55  9:10 Kamloops,BC
  244 146/190 M 16/26 M4549  2:44:19  151 Lawrence Gamracy        253 31:51  161 1:13:34 20.3  192 1:45:25  297 58:55  9:29 Kamloops,BC
  245 147/190 M  6/12 M5559  2:44:26  231 Richard Cudmore         241 31:33  230 1:17:35 19.2  231 1:49:08  259 55:19  8:55 Squamish,BC
  246 148/190 M 17/26 M4549  2:44:40  205 Brent Wisheart          290 33:36  239 1:18:47 18.9  268 1:52:22  201 52:18  8:25 North Vancouver,
  247 149/190 M  7/9  M5054  2:44:49  262 Michael Seear           150 28:23  237 1:18:40 19.0  207 1:47:02  287 57:48  9:19 Vancouver,BC
  248  73/166 F 20/32 F2529  2:44:51  266 Kim Janakka             323 35:06  186 1:15:12 19.8  246 1:50:17  249 54:35  8:47 Squamish,BC
  249  74/166 F  8/22 F4044  2:44:55  256 Tracey Shelley          161 28:38  222 1:17:13 19.3  195 1:45:51  300 59:05  9:31 Delta,BC
  250 150/190 M 18/26 M4549  2:45:00  302 Perry Danforth          298 33:48  243 1:19:02 18.9  271 1:52:49  198 52:11  8:24 Vancouver,BC
  251  75/166 F 21/32 F2529  2:45:07   86 Kendra Henderson        123 27:38  333 1:27:44 17.0  289 1:55:22  150 49:46  8:01 Squamish,BC
  252 151/190 M 32/37 M3034  2:45:27   29 .Wayne Kern             250 31:48  121 1:11:16 20.9  160 1:43:04  334 62:23 10:03 Delta,BC
  253  76/166 F  9/22 F4044  2:45:33   79 May Jung                236 31:29  308 1:24:29 17.7  292 1:55:58  146 49:36  7:59 North Vancouver,
  254  77/166 F 10/22 F4044  2:45:48  210 Miriam Ezra             266 32:33  261 1:19:54 18.7  270 1:52:27  224 53:22  8:36 Port Coquitlam,B
  255 152/190 M  7/12 M5559  2:46:27  272 John Christie           270 32:41  271 1:20:29 18.5  275 1:53:09  223 53:18  8:35 Vancouver,BC
  256  78/166 F  1/2  F5559  2:46:43  169 Bonny Ervin             229 31:13  273 1:20:30 18.5  261 1:51:43  254 55:01  8:52 Royston,BC
  257 153/190 M 25/30 M4044  2:46:45  283 Joseph Lee               39 24:00  260 1:19:50 18.7  171 1:43:50  340 62:55 10:08 Vancouver,BC
  258  79/166 F 17/34 F3539  2:46:56  265 Linda Chow              299 33:48  208 1:16:26 19.5  245 1:50:13  275 56:44  9:08 Vancouver,BC
  259 154/190 M 33/37 M3034  2:47:02  217 Zak Gilson              267 32:36  285 1:22:04 18.2  284 1:54:40  204 52:23  8:26 Brackendale,BC
  260  26/41  R 13/18 R-Mix  2:47:09  411  Pemberton Potatoehead  329 35:29  289 1:22:24 18.1  308 1:57:53  137 49:16  7:56 Pemberton,BC
  261  27/41  R  5/8  R-Male 2:47:13  408  Geriatric Giants       296 33:42  274 1:20:35 18.5  282 1:54:16  215 52:57  8:32 ,
  262  80/166 F  2/6  F5054  2:47:28   62 Patty Phillips          309 34:15  279 1:21:05 18.4  288 1:55:19  196 52:09  8:24 North Vancouver,
  263 155/190 M  8/9  M5054  2:47:38   95 Rob Cooper              351 37:21  236 1:18:38 19.0  293 1:55:59  191 51:39  8:19 Vancouver,BC
  264  81/166 F 11/22 F4044  2:47:40   93 Gail Sawers             249 31:45  215 1:16:45 19.4  227 1:48:30  301 59:11  9:32 Vancouver,BC
  265 156/190 M 26/30 M4044  2:47:46   52 Brian Strilesky         295 33:42  281 1:21:36 18.3  287 1:55:17  206 52:29  8:27 Coquitlam,BC
  266  82/166 F 14/40 F3034  2:48:28   85 Andrea Camp             132 27:57  255 1:19:42 18.7  213 1:47:39  314 60:49  9:48 Vancouver,BC
  267 157/190 M 34/37 M3034  2:48:29  209 Chris Clibbon           160 28:36  300 1:23:08 17.9  262 1:51:44  276 56:45  9:08 Vancouver,BC
  268 158/190 M 19/26 M4549  2:48:33  363 Graeme Arnott            89 26:26  269 1:20:24 18.6  205 1:46:49  327 61:44  9:57 Vancouver,BC
  269 159/190 M 35/37 M3034  2:48:38   34 Jason Camp              275 32:59  220 1:17:05 19.4  241 1:50:03  292 58:36  9:26 Vancouver,BC
  270  83/166 F 22/32 F2529  2:48:41   70 Sara Weinstein          212 30:36  322 1:26:30 17.2  302 1:57:06  190 51:35  8:19 Vancouver,BC
  271  84/166 F 18/34 F3539  2:48:45   30 Cindy Hubbard           269 32:37  190 1:15:33 19.7  219 1:48:10  311 60:36  9:46 Vancouver,BC
  272  85/166 F 15/40 F3034  2:48:49  196 Marie MacEwen           244 31:37  313 1:25:13 17.5  299 1:56:49  195 52:00  8:22 Whistler,BC
  273  86/166 F 16/40 F3034  2:48:51  134 Sandra Stuart           225 31:02  242 1:18:58 18.9  240 1:49:59  295 58:52  9:29 Vancouver,BC
  274 160/190 M  8/12 M5559  2:49:00  331 Alan Keylock            235 31:29  324 1:26:31 17.2  309 1:57:59  176 51:01  8:13 North Vancouver,
  275 161/190 M 20/26 M4549  2:49:02  180 Brian Shale             180 29:18  217 1:16:51 19.4  198 1:46:08  338 62:55 10:08 Coquitlam,BC
  276 162/190 M 21/26 M4549  2:49:02   36 Nigel Barrett           287 33:28  234 1:18:21 19.0  263 1:51:49  283 57:14  9:13 Surrey,BC
  277  87/166 F 23/32 F2529  2:49:08  162 Callie Wolff            280 33:13  303 1:24:12 17.7  304 1:57:24  193 51:44  8:20 Vancouver,BC
  278 163/190 M 36/37 M3034  2:49:41    4 James Vallance          326 35:16  116 1:11:07 21.0  200 1:46:23  342 63:19 10:12 Chilliwack,BC
  279 164/190 M 30/37 M3539  2:49:55  294 Adrian White            213 30:37  317 1:25:35 17.4  296 1:56:12  233 53:43  8:39 Vancouver,BC
  280  88/166 F 17/40 F3034  2:49:55   24 Liane Dunsmuir          342 36:56  250 1:19:16 18.8  295 1:56:11  235 53:45  8:39 Whistler,BC
  281  89/166 F  4/12 F4549  2:49:57  318 Lynn James              293 33:38  338 1:28:10 16.9  326 2:01:47  115 48:10  7:46 Port Coquitlam,B
  282  90/166 F 24/32 F2529  2:50:12  186 Tonja Dwyer             310 34:21  298 1:22:59 18.0  303 1:57:20  211 52:53  8:31 Vancouver,BC
  283  91/166 F 18/40 F3034  2:50:29  236 Nicola Lambrechts       268 32:36  254 1:19:38 18.7  265 1:52:14  290 58:15  9:23 Vancouver,BC
  284  92/166 F 19/40 F3034  2:50:33  177 Tara Cain               153 28:27  262 1:19:56 18.7  222 1:48:22  331 62:11 10:01 Vancouver,BC
  285 165/190 M 27/30 M4044  2:50:49  118 Mike Simm               348 37:11  256 1:19:44 18.7  300 1:56:55  236 53:55  8:41 Squamish,BC
  286  93/166 F  5/12 F4549  2:51:06  226 Terrie Dlugon           350 37:19  265 1:20:07 18.6  305 1:57:26  232 53:41  8:39 Vancouver,BC
  287 166/190 M 22/26 M4549  2:51:09  247 David Bebb              333 36:01  205 1:16:24 19.5  269 1:52:24  294 58:46  9:28 Vancouver,BC
  288  94/166 F  6/12 F4549  2:51:19  131 Lynda Truelove          240 31:33  292 1:22:36 18.1  279 1:54:09  280 57:11  9:13 Bowen Island,BC
  289 167/190 M 31/37 M3539  2:52:18  292 Guy Morum               108 27:16  305 1:24:25 17.7  260 1:51:40  312 60:38  9:46 Squamish,BC
  290 168/190 M 32/37 M3539  2:52:33  288 Greg Sanderson           49 24:37  268 1:20:15 18.6  183 1:44:52  359 67:41 10:54 New Westminster,
  291  95/166 F 25/32 F2529  2:52:40  380 Yvonne Turkenburg        93 26:36  309 1:24:38 17.6  253 1:51:14  323 61:27  9:54 Vancouver,BC
  292 169/190 M 15/16 M2529  2:52:50   33 Jeff Romanyk            343 36:56  252 1:19:32 18.8  297 1:56:28  270 56:22  9:05 Surrey,BC
  293  28/41  R 10/15 R-Fem  2:53:20  434  Spirit of Fun Trio     274 32:58  334 1:27:56 17.0  323 2:00:54  205 52:27  8:27 Vancouver,BC
  294  29/41  R 14/18 R-Mix  2:53:21  412  Clubtread              294 33:40  325 1:26:38 17.2  322 2:00:18  220 53:04  8:33 North Vancouver,
  295  96/166 F 20/40 F3034  2:53:38  112 Stephanie Kurmey        149 28:23  319 1:25:49 17.4  280 1:54:11  303 59:28  9:35 New Westminster,
  296 170/190 M 33/37 M3539  2:54:09   48 James Horne             247 31:40  158 1:13:23 20.3  185 1:45:03  363 69:07 11:08 Richmond,BC
  297  97/166 F 12/22 F4044  2:54:09  368 Charmaine Roberts       319 34:55  310 1:24:56 17.6  321 1:59:50  245 54:20  8:45 Langley,BC
  298  98/166 F  1/2  F6064  2:54:21  304 Mae Palm                291 33:36  315 1:25:16 17.5  312 1:58:51  263 55:30  8:56 Garibaldi Highla,
  299  99/166 F 21/40 F3034  2:54:31  306 Esther Musslick         107 27:13  306 1:24:25 17.7  259 1:51:37  339 62:55 10:08 North Vancouver,
  300 100/166 F 22/40 F3034  2:54:41   39 Kirsten Bratlien        324 35:13  253 1:19:38 18.7  286 1:54:50  305 59:52  9:39 Vancouver,BC
  301  30/41  R 11/15 R-Fem  2:54:43  426  The Tribrarians        353 37:29  191 1:15:34 19.7  273 1:53:03  325 61:40  9:56 Squamish,BC
  302 101/166 F 19/34 F3539  2:55:35  271 Diane Miller            131 27:50  280 1:21:34 18.3  235 1:49:24  357 66:12 10:40 Vancouver,BC
  303 171/190 M 34/37 M3539  2:55:53   17 Sam Dulay               315 34:43  312 1:25:07 17.5  320 1:59:49  265 56:05  9:02 Vancouver,BC
  304 172/190 M  4/5  M6064  2:55:59  174 Paul Ervin              237 31:30  301 1:23:18 17.9  285 1:54:48  319 61:11  9:51 Royston,BC
  305 102/166 F 23/40 F3034  2:56:09  237 Rochelle Todosichuk     374 40:59  290 1:22:29 18.1  333 2:03:28  210 52:42  8:29 Vancouver,BC
  306 103/166 F 13/14 F2024  2:57:00  233 Ariel Ward              120 27:29  302 1:24:03 17.7  257 1:51:31  355 65:30 10:33 Vancouver,BC
  307  31/41  R  6/8  R-Male 2:57:24  405  Go Joe Go              377 42:23  332 1:27:42 17.0  357 2:10:04  107 47:20  7:38 ,
  308 173/190 M 35/37 M3539  2:57:51  193 Glen Wiggins            325 35:14  287 1:22:17 18.1  306 1:57:31  307 60:20  9:43 North Vancouver,
  309 174/190 M 23/26 M4549  2:58:11  357 Bob McKeachie           297 33:44  275 1:20:35 18.5  283 1:54:19  348 63:52 10:17 North Vancouver,
  310 104/166 F 24/40 F3034  2:58:20  111 Dana Kroenert           232 31:25  336 1:28:03 16.9  316 1:59:28  296 58:52  9:29 Garibaldi Highla,
  311  32/41  R 12/15 R-Fem  2:58:48  431  R We There Yet         286 33:26  240 1:18:53 18.9  267 1:52:19  358 66:29 10:42 Vancouver,BC
  312 175/190 M  9/12 M5559  2:59:31  378 Pierre Leichner         209 30:26  323 1:26:31 17.2  301 1:56:57  335 62:34 10:05 Vancouver,BC
  313 105/166 F 20/34 F3539  2:59:44  254 Nancy Normandin         305 33:56  307 1:24:26 17.7  310 1:58:21  322 61:23  9:53 Vancouver,BC
  314 106/166 F  7/12 F4549  2:59:56   23 Grace Blok              382 43:04  284 1:22:00 18.2  337 2:05:03  252 54:54  8:50 Whistler,BC
  315 107/166 F 21/34 F3539  3:00:02  289 Denise Van Straaten     358 38:30  329 1:27:01 17.1  340 2:05:30  247 54:33  8:47 Delta,BC
  316 108/166 F 25/40 F3034  3:01:10  269 Audrie Gilson           340 36:37  291 1:22:36 18.1  315 1:59:12  330 61:59  9:59 Brackendale,BC
  317  33/41  R 15/18 R-Mix  3:01:16  409  STP                    228 31:12  363 1:33:26 16.0  336 2:04:37  274 56:40  9:08 Squamish,BC
  318 109/166 F 26/40 F3034  3:01:28  104 Leanne Johnson          260 32:12  245 1:19:05 18.9  254 1:51:17  366 70:11 11:18 Vancouver,BC
  319  34/41  R 16/18 R-Mix  3:01:40  406  Team Chief Pizza       370 39:54  247 1:19:06 18.9  313 1:59:00  336 62:41 10:06 ,
  320 176/190 M 37/37 M3034  3:01:45   77 Curtis Arling           341 36:48  259 1:19:48 18.7  298 1:56:36  353 65:10 10:30 Calgary,AB
  321 110/166 F 26/32 F2529  3:02:14  165 Kim Gerrow              320 34:56  328 1:26:58 17.2  327 2:01:54  308 60:21  9:43 Vancouver,BC
  322 111/166 F  2/2  F1519  3:02:39  190 Marie-Christ Vasseur    122 27:38  297 1:22:57 18.0  248 1:50:35  376 72:05 11:36 Candiac,PQ
  323 177/190 M 28/30 M4044  3:02:40  218 Kevin Shockey           332 35:55  314 1:25:13 17.5  324 2:01:07  324 61:33  9:55 Piit Meadows,BC
  324 178/190 M 24/26 M4549  3:02:42  222 Paul Christie           366 39:22  345 1:29:24 16.7  354 2:08:46  238 53:57  8:41 Maple Ridge,BC
  325 112/166 F  3/6  F5054  3:02:54   49 Janet McCormack         316 34:47  354 1:31:49 16.2  344 2:06:35  268 56:19  9:04 North Vancouver,
  326 113/166 F 27/32 F2529  3:03:29  147 Dominique Ramirez       304 33:52  346 1:29:31 16.7  330 2:03:22  306 60:07  9:41 North Vancouver,
  327  35/41  R 17/18 R-Mix  3:03:33  401  The Tripolars          261 32:14  330 1:27:31 17.0  319 1:59:45  347 63:49 10:17 Vancouver,BC
  328 114/166 F 22/34 F3539  3:03:35  179 Michelle Bech           380 43:00  316 1:25:31 17.4  352 2:08:30  255 55:05  8:52 Squamish,BC
  329 115/166 F 27/40 F3034  3:03:39  322 Shelby Reid             356 38:20  344 1:29:21 16.7  347 2:07:41  264 55:59  9:01 Pemberton,BC
  330 116/166 F  8/12 F4549  3:03:51  184 Lynn Robertson          273 32:57  327 1:26:44 17.2  318 1:59:41  349 64:10 10:20 Surrey,BC
  331 117/166 F  9/12 F4549  3:04:11  349 Cindy Roberts           322 35:01  337 1:28:08 16.9  328 2:03:09  318 61:02  9:50 Richmond,BC
  332 118/166 F 28/40 F3034  3:04:40   99 Lisa De Goes            344 36:56  321 1:26:29 17.2  331 2:03:25  321 61:15  9:52 Burnaby,BC
  333 119/166 F 29/40 F3034  3:04:46  155 Sarah Whitehead         373 40:57  326 1:26:44 17.2  346 2:07:40  279 57:07  9:12 Vancouver,BC
  334 120/166 F 13/22 F4044  3:04:48  225 Marcia Collier          328 35:28  348 1:30:00 16.6  339 2:05:27  302 59:22  9:34 Squamish,BC
  335 179/190 M 29/30 M4044  3:04:55  351 Kenneth Wong            395 50:05  282 1:21:49 18.2  362 2:11:53  219 53:02  8:33 Coquitlam,BC
  336 121/166 F 28/32 F2529  3:04:59  301 Erin Parr               139 28:03  318 1:25:48 17.4  277 1:53:51  370 71:09 11:27 Kamloops,BC
  337 180/190 M  5/5  M6064  3:05:03  249 Rob Daniel              375 41:22  283 1:21:57 18.2  329 2:03:19  328 61:45  9:57 Vancouver,BC
  338  36/41  R 18/18 R-Mix  3:05:13  414  Beauty & the Beast     335 36:07  339 1:28:10 16.9  335 2:04:17  316 60:56  9:49 Delta,BC
  339 122/166 F 14/22 F4044  3:06:33  374 Michaela Woolridge      246 31:39  304 1:24:25 17.7  294 1:56:03  367 70:31 11:21 Delta,BC
  340 123/166 F  4/6  F5054  3:08:19  314 Gayle Lewis             362 39:09  358 1:32:36 16.1  361 2:11:45  272 56:35  9:07 Squamish,BC
  341 124/166 F 30/40 F3034  3:08:40  350 Ulrike Jacob            363 39:19  342 1:28:47 16.8  348 2:08:06  309 60:35  9:45 Vancouver,BC
  342  37/41  R 13/15 R-Fem  3:08:42  418  Speedy Plodders        311 34:21  371 1:36:25 15.5  358 2:10:45  288 57:58  9:20 ,
  343 125/166 F 15/22 F4044  3:08:51  370 Lisa Lawrence           355 37:45  350 1:30:22 16.5  349 2:08:06  313 60:45  9:47 North Vancouver,
  344 126/166 F 29/32 F2529  3:09:09  232 Jenika Gordon           393 48:58  347 1:29:47 16.6  374 2:18:44  160 50:25  8:07 Vancouver,BC
  345 181/190 M 25/26 M4549  3:10:14  275 Jim Beguin              334 36:07  296 1:22:55 18.0  314 1:59:02  372 71:13 11:28 New Westminster,
  346 127/166 F 23/34 F3539  3:10:15   71 Karen Lirenman          300 33:48  331 1:27:31 17.0  325 2:01:19  360 68:57 11:06 Vancouver,BC
  347 182/190 M 26/26 M4549  3:10:17  116 Michael Pearce          321 35:00  352 1:30:53 16.4  342 2:05:53  351 64:24 10:22 Vancouver,BC
  348 183/190 M 36/37 M3539  3:10:24   56 Dan Macadam             383 43:06  311 1:25:06 17.5  350 2:08:12  332 62:13 10:01 Vancouver,BC
  349 128/166 F 24/34 F3539  3:10:34  150 Janet MacLean           308 34:06  360 1:33:06 16.0  345 2:07:11  343 63:24 10:13 Vancouver,BC
  350 129/166 F 25/34 F3539  3:12:22  308 Tina Bossley            379 42:52  367 1:35:02 15.7  372 2:17:54  246 54:28  8:46 North Vancouver,
  351 130/166 F 31/40 F3034  3:12:22  309 Kristine Vanbeers       327 35:22  361 1:33:14 16.0  353 2:08:36  346 63:47 10:16 Vancouver,BC
  352 131/166 F 16/22 F4044  3:12:44   42 Alison Scully           302 33:50  368 1:35:18 15.7  355 2:09:07  345 63:37 10:15 Squamish,BC
  353 132/166 F 30/32 F2529  3:13:15   67 Tracy Silvester         371 39:58  364 1:33:50 15.9  365 2:13:47  304 59:29  9:35 Whistler,BC
  354 184/190 M 10/12 M5559  3:15:06   51 Gord Seeley             392 48:03  335 1:28:01 16.9  370 2:16:04  299 59:03  9:31 Cloverdale,BC
  355 133/166 F 14/14 F2024  3:15:51   54 Tessa Gresley-Jones     283 33:15  351 1:30:52 16.4  334 2:04:06  374 71:45 11:33 Rossland,BC
  356 134/166 F 31/32 F2529  3:15:58  276 Alison Oliver           349 37:11  340 1:28:15 16.9  338 2:05:26  368 70:32 11:22 Vancouver,BC
  357 135/166 F 17/22 F4044  3:16:07  359 Karin Armstrong         227 31:11  356 1:32:16 16.2  332 2:03:26  379 72:41 11:42 Burnaby,BC
  358 136/166 F 32/40 F3034  3:18:30  207 Jane Hague              330 35:36  349 1:30:03 16.6  341 2:05:38  381 72:53 11:44 Whistler,BC
  359 137/166 F 33/40 F3034  3:18:32  252 Mary Hewitt             303 33:50  355 1:32:10 16.2  343 2:05:59  377 72:33 11:41 Vancouver,BC
  360 138/166 F 34/40 F3034  3:18:57  200 Heather Alexander       388 45:40  353 1:31:27 16.3  371 2:17:07  329 61:50  9:58 Vancouver,BC
  361 139/166 F  2/2  F5559  3:19:06   40 Heather Sidworth        346 37:07  375 1:37:43 15.3  369 2:14:50  350 64:17 10:21 Squamish,BC
  362 140/166 F 18/22 F4044  3:20:47    5 Ingrid Harrison         364 39:21  381 1:46:15 14.0  381 2:25:35  258 55:12  8:53 Surrey,BC
  363 185/190 M 16/16 M2529  3:20:47    7 Khai Lee                338 36:25  286 1:22:17 18.1  311 1:58:41  386 82:07 13:13 Vancouver,BC
  364 141/166 F 26/34 F3539  3:21:04  367 Erica Rigik             301 33:48  366 1:34:41 15.8  351 2:08:29  378 72:36 11:41 Whistler,BC
  365 142/166 F 19/22 F4044  3:21:06   83 July Ono                384 43:11  376 1:39:17 15.0  377 2:22:28  293 58:39  9:27 Delta,BC
  366 143/166 F 10/12 F4549  3:21:07   45 Jo-Anne Dagsvik         386 44:01  365 1:34:20 15.8  373 2:18:20  337 62:47 10:07 Thunder Bay,On
  367 144/166 F 27/34 F3539  3:23:18   31 Michelle Pammenter      345 36:56  373 1:37:22 15.3  368 2:14:18  361 69:00 11:07 Brackendale,BC
  368 145/166 F 35/40 F3034  3:23:20  327 Cindy Lund Chow         381 43:00  341 1:28:27 16.9  359 2:11:26  375 71:54 11:35 North Vancouver,
  369 146/166 F 36/40 F3034  3:23:33  108 Kim Starrett            365 39:21  359 1:32:56 16.0  363 2:12:17  373 71:16 11:29 Delta,BC
  370 186/190 M 11/12 M5559  3:24:47  267 Michael Koseruba        278 33:07  370 1:36:07 15.5  356 2:09:13  382 75:34 12:10 West Vancouver,B
  371 147/166 F 28/34 F3539  3:26:07   91 Tracey Welsford         396 54:21  343 1:28:50 16.8  378 2:23:11  341 62:56 10:08 Richmond,BC
  372 148/166 F  5/6  F5054  3:27:40  105 Chris Durnford          368 39:24  357 1:32:19 16.2  360 2:11:43  383 75:58 12:14 Surrey,BC
  373  38/41  R 14/15 R-Fem  3:27:46  433  Chrissy Curly & Moe    336 36:09  383 1:48:01 13.8  379 2:24:10  344 63:37 10:15 ,
  374 149/166 F 32/32 F2529  3:29:53  191 Chandra Eyton           226 31:02  384 1:48:44 13.7  375 2:19:45  365 70:09 11:18 Whistler,BC
  375 150/166 F 37/40 F3034  3:31:06   20 Dawn Bowles             354 37:43  386 1:51:08 13.4  383 2:28:51  333 62:16 10:02 Vancouver,BC
  376 151/166 F 11/12 F4549  3:32:39  362 Lynda Shaw              276 33:05  377 1:41:13 14.7  367 2:14:17  384 78:23 12:37 North Vancouver,
  377 152/166 F 29/34 F3539  3:32:45  123 Barbara Murphy          385 43:59  374 1:37:36 15.3  376 2:21:34  371 71:12 11:28 North Vancouver,
  378 153/166 F 30/34 F3539  3:32:49  321 Tracy Torrell           347 37:10  369 1:36:04 15.5  364 2:13:14  385 79:36 12:49 Whistler,BC
  379 154/166 F  2/2  F6064  3:32:51  114 Mary Battell            367 39:23  382 1:47:54 13.8  382 2:27:16  356 65:36 10:34 Delta,BC
  380 155/166 F 31/34 F3539  3:33:05  251 Pratibha Bhagat         387 44:52  387 1:51:37 13.4  390 2:36:28  273 56:37  9:07 ,
  381 156/166 F 32/34 F3539  3:34:19  244 Claire Cote             391 47:56  372 1:36:34 15.4  380 2:24:30  364 69:50 11:15 Brackendale,BC
  382 157/166 F 33/34 F3539  3:34:58  170 Geraldine Cox           369 39:31  389 1:54:15 13.1  389 2:33:45  320 61:14  9:52 Vancouver,BC
  383  39/41  R 15/15 R-Fem  3:36:02  439  Mtn FM                 288 33:34  390 1:57:05 12.7  385 2:30:39  354 65:24 10:32 Squamish,BC
  384 187/190 M  9/9  M5054  3:36:48  173 Garth Reiss             372 40:41  362 1:33:14 16.0  366 2:13:55  387 82:53 13:21 Pemberton,BC
  385 158/166 F 20/22 F4044  3:37:02  347 Maha Fletcher           389 46:23  380 1:45:33 14.1  387 2:31:56  352 65:06 10:29 North Vancouver,
  386 159/166 F 21/22 F4044  3:37:55  307 Annie Murphy            390 46:55  378 1:42:00 14.6  384 2:28:55  362 69:01 11:07 150 Mile House,B
  387 160/166 F 38/40 F3034  3:42:11  241 Tiah Goldstein          394 49:06  379 1:42:01 14.6  386 2:31:06  369 71:05 11:27 Vancouver,BC
  388 161/166 F 12/12 F4549  3:45:23  238 Marilyne Chapman        378 42:33  385 1:50:00 13.6  388 2:32:32  380 72:52 11:44 Garibaldi Highla,
  389 162/166 F 22/22 F4044  4:15:09  188 Jacqueline Yang         397 57:31  388 1:52:48 13.2  391 2:50:18  388 84:51 13:40 Vancouver,BC